MDPP - Puerto Plata
MDPP 230600Z 00000KT 9999 BKN016 23/23 Q1013
Observed:
visibility:
Flight Rules:
Cloud Levels:
Temperature:
Humidity:
Pressure: